createdAt,value
2019-04-21T00:01:59.574Z,10.17
2019-04-21T00:04:48.332Z,10.13
2019-04-21T00:07:26.458Z,10.06
2019-04-21T00:10:09.710Z,9.96
2019-04-21T00:15:04.738Z,9.72
2019-04-21T00:17:28.710Z,9.52
2019-04-21T00:20:15.755Z,9.45
2019-04-21T00:22:52.378Z,9.64
2019-04-21T00:25:30.921Z,9.67
2019-04-21T00:28:09.727Z,9.70
2019-04-21T00:30:44.215Z,9.64
2019-04-21T00:33:09.166Z,9.72
2019-04-21T00:35:45.106Z,9.56
2019-04-21T00:38:35.515Z,9.57
2019-04-21T00:41:13.249Z,9.44
2019-04-21T00:43:41.349Z,9.37
2019-04-21T00:46:13.560Z,9.47
2019-04-21T00:48:57.437Z,9.40
2019-04-21T00:51:42.151Z,9.23
2019-04-21T00:54:16.970Z,9.20
2019-04-21T00:56:52.637Z,9.15
2019-04-21T00:59:28.199Z,8.96
2019-04-21T01:02:00.088Z,8.94
2019-04-21T01:04:39.506Z,9.03
2019-04-21T01:07:13.278Z,8.95
2019-04-21T01:09:43.954Z,8.96
2019-04-21T01:12:31.913Z,8.93
2019-04-21T01:15:04.724Z,8.81
2019-04-21T01:17:44.816Z,8.73
2019-04-21T01:20:09.652Z,8.61
2019-04-21T01:22:29.515Z,8.79
2019-04-21T01:25:11.898Z,8.71
2019-04-21T01:27:54.098Z,8.62
2019-04-21T01:30:34.739Z,8.55
2019-04-21T01:33:16.950Z,8.44
2019-04-21T01:35:48.433Z,8.48
2019-04-21T01:38:28.842Z,8.60
2019-04-21T01:41:08.363Z,8.45
2019-04-21T01:43:33.317Z,8.45
2019-04-21T01:46:10.934Z,8.43
2019-04-21T01:48:43.699Z,8.35
2019-04-21T01:51:22.484Z,8.33
2019-04-21T01:54:22.245Z,8.43
2019-04-21T01:57:02.752Z,8.36
2019-04-21T01:59:39.587Z,8.26
2019-04-21T02:02:19.306Z,8.19
2019-04-21T02:04:57.604Z,8.17
2019-04-21T02:07:26.887Z,8.11
2019-04-21T02:10:05.137Z,8.09
2019-04-21T02:12:48.923Z,8.12
2019-04-21T02:15:38.002Z,8.10
2019-04-21T02:17:54.106Z,7.96
2019-04-21T02:20:21.793Z,7.95
2019-04-21T02:23:22.399Z,7.95
2019-04-21T02:25:44.700Z,7.88
2019-04-21T02:28:22.437Z,7.93
2019-04-21T02:41:31.176Z,7.85
2019-04-21T02:47:19.488Z,7.72
2019-04-21T02:49:32.698Z,7.78
2019-04-21T02:57:08.581Z,7.66
2019-04-21T03:00:10.148Z,7.59
2019-04-21T03:06:10.495Z,7.48
2019-04-21T03:11:17.620Z,7.36
2019-04-21T03:14:12.490Z,7.22
2019-04-21T03:16:32.977Z,7.14
2019-04-21T03:19:17.579Z,7.05
2019-04-21T03:22:39.379Z,6.97
2019-04-21T03:25:21.433Z,6.93
2019-04-21T03:27:51.231Z,6.85
2019-04-21T03:30:42.610Z,6.83
2019-04-21T03:40:37.266Z,6.61
2019-04-21T03:43:12.657Z,6.59
2019-04-21T03:45:49.218Z,6.55
2019-04-21T03:48:27.038Z,6.53
2019-04-21T03:50:56.659Z,6.51
2019-04-21T03:53:44.477Z,6.44
2019-04-21T03:58:55.867Z,6.41
2019-04-21T04:01:57.767Z,6.39
2019-04-21T04:07:49.799Z,6.23
2019-04-21T04:10:22.402Z,6.16
2019-04-21T04:12:52.540Z,6.17
2019-04-21T04:15:45.374Z,6.15
2019-04-21T04:18:04.616Z,6.20
2019-04-21T04:25:51.585Z,6.02
2019-04-21T04:31:21.475Z,6.01
2019-04-21T04:36:30.164Z,5.98
2019-04-21T04:39:25.833Z,6.04
2019-04-21T04:47:22.744Z,7.38
2019-04-21T04:52:36.215Z,8.00
2019-04-21T04:55:26.161Z,9.09
2019-04-21T05:02:56.397Z,11.08
2019-04-21T05:06:11.912Z,11.56
2019-04-21T05:08:42.381Z,12.25
2019-04-21T05:11:20.877Z,12.76
2019-04-21T05:13:50.896Z,13.45
2019-04-21T05:16:36.251Z,13.58
2019-04-21T05:24:01.319Z,14.62
2019-04-21T05:26:34.506Z,14.90
2019-04-21T05:29:10.594Z,15.52
2019-04-21T05:32:13.361Z,15.66
2019-04-21T05:34:37.399Z,15.46
2019-04-21T05:37:37.152Z,14.83
2019-04-21T05:40:15.845Z,15.50
2019-04-21T05:42:55.539Z,15.42
2019-04-21T05:45:37.309Z,15.86
2019-04-21T05:48:33.626Z,15.82
2019-04-21T05:51:02.046Z,16.48
2019-04-21T05:53:55.662Z,16.45
2019-04-21T05:56:17.448Z,17.15
2019-04-21T05:58:48.030Z,17.12
2019-04-21T06:01:33.443Z,16.54
2019-04-21T06:04:05.413Z,17.75
2019-04-21T06:06:49.791Z,18.20
2019-04-21T06:09:18.987Z,19.97
2019-04-21T06:11:55.527Z,19.82
2019-04-21T06:14:30.524Z,19.64
2019-04-21T06:17:17.522Z,21.70
2019-04-21T06:19:43.258Z,21.81
2019-04-21T06:22:13.873Z,20.98
2019-04-21T06:30:24.006Z,22.76
2019-04-21T06:32:47.152Z,22.65
2019-04-21T06:35:56.510Z,22.27
2019-04-21T06:38:19.269Z,22.61
2019-04-21T06:40:50.084Z,21.62
2019-04-21T06:43:37.718Z,21.82
2019-04-21T06:46:02.228Z,21.21
2019-04-21T06:48:44.452Z,21.23
2019-04-21T06:51:15.115Z,20.75
2019-04-21T06:53:59.373Z,22.14
2019-04-21T06:56:38.010Z,21.77
2019-04-21T06:59:06.725Z,21.16
2019-04-21T07:01:51.463Z,22.40
2019-04-21T07:04:25.280Z,21.56
2019-04-21T07:06:54.216Z,21.77
2019-04-21T07:09:31.867Z,23.43
2019-04-21T07:12:06.196Z,23.96
2019-04-21T07:14:50.046Z,24.01
2019-04-21T07:17:26.938Z,24.89
2019-04-21T07:22:36.859Z,23.42
2019-04-21T07:25:18.230Z,23.59
2019-04-21T07:27:49.052Z,23.85
2019-04-21T07:30:26.673Z,22.16
2019-04-21T07:33:09.249Z,22.62
2019-04-21T07:35:31.816Z,22.33
2019-04-21T07:38:17.992Z,22.65
2019-04-21T07:40:39.982Z,23.47
2019-04-21T07:43:13.581Z,22.42
2019-04-21T07:45:49.853Z,22.56
2019-04-21T07:48:36.142Z,22.94
2019-04-21T07:51:33.973Z,22.72
2019-04-21T07:54:10.401Z,23.32
2019-04-21T07:56:28.757Z,23.51
2019-04-21T07:59:21.247Z,22.72
2019-04-21T08:01:55.151Z,23.47
2019-04-21T08:04:49.566Z,23.97
2019-04-21T08:07:09.942Z,23.64
2019-04-21T08:09:42.657Z,22.25
2019-04-21T08:12:08.108Z,23.96
2019-04-21T08:14:50.711Z,23.74
2019-04-21T08:17:30.206Z,22.77
2019-04-21T08:20:00.571Z,23.24
2019-04-21T08:22:46.334Z,22.90
2019-04-21T08:28:26.430Z,23.77
2019-04-21T08:30:56.801Z,24.08
2019-04-21T08:33:17.538Z,24.15
2019-04-21T08:38:31.515Z,23.92
2019-04-21T08:41:01.563Z,23.72
2019-04-21T08:46:16.949Z,22.77
2019-04-21T08:48:52.574Z,23.34
2019-04-21T08:51:44.756Z,23.07
2019-04-21T08:54:05.514Z,22.67
2019-04-21T08:56:54.474Z,21.96
2019-04-21T08:59:53.371Z,22.55
2019-04-21T09:02:34.000Z,22.58
2019-04-21T09:05:09.026Z,22.84
2019-04-21T09:10:14.321Z,22.42
2019-04-21T09:12:46.614Z,22.29
2019-04-21T09:15:29.357Z,22.26
2019-04-21T09:18:00.663Z,21.95
2019-04-21T09:23:18.089Z,21.88
2019-04-21T09:25:52.258Z,21.88
2019-04-21T09:28:22.670Z,21.57
2019-04-21T09:30:52.173Z,21.44
2019-04-21T09:33:28.050Z,21.90
2019-04-21T09:36:02.665Z,21.95
2019-04-21T09:38:39.838Z,21.48
2019-04-21T09:41:15.477Z,21.39
2019-04-21T09:43:52.142Z,21.90
2019-04-21T09:46:25.429Z,21.80
2019-04-21T09:49:05.753Z,22.24
2019-04-21T09:51:37.220Z,21.91
2019-04-21T09:54:17.458Z,21.61
2019-04-21T09:56:54.013Z,22.07
2019-04-21T09:59:28.450Z,21.96
2019-04-21T10:02:08.458Z,22.07
2019-04-21T10:04:34.102Z,22.20
2019-04-21T10:07:23.617Z,21.58
2019-04-21T10:09:49.908Z,21.84
2019-04-21T10:12:23.792Z,22.23
2019-04-21T10:14:57.537Z,22.24
2019-04-21T10:17:56.230Z,22.60
2019-04-21T10:20:30.891Z,22.40
2019-04-21T10:23:07.213Z,21.95
2019-04-21T10:25:43.209Z,22.58
2019-04-21T10:28:19.025Z,22.56
2019-04-21T10:30:54.095Z,22.34
2019-04-21T10:33:30.767Z,21.95
2019-04-21T10:36:06.861Z,21.95
2019-04-21T10:38:47.745Z,22.33
2019-04-21T10:41:17.720Z,22.74
2019-04-21T10:43:51.527Z,23.09
2019-04-21T10:46:26.602Z,22.73
2019-04-21T10:49:01.096Z,22.79
2019-04-21T10:51:35.276Z,22.94
2019-04-21T10:54:09.052Z,22.75
2019-04-21T10:56:44.465Z,22.81
2019-04-21T10:59:20.448Z,23.43
2019-04-21T11:01:56.839Z,23.26
2019-04-21T11:04:36.443Z,22.91
2019-04-21T11:07:31.887Z,23.25
2019-04-21T11:10:04.461Z,23.35
2019-04-21T11:12:39.741Z,23.19
2019-04-21T11:15:14.876Z,23.65
2019-04-21T11:17:49.214Z,22.67
2019-04-21T11:20:24.780Z,22.36
2019-04-21T11:23:01.693Z,23.40
2019-04-21T11:25:37.849Z,23.42
2019-04-21T11:28:14.280Z,23.60
2019-04-21T11:30:50.972Z,23.67
2019-04-21T11:33:24.981Z,24.45
2019-04-21T11:36:01.357Z,24.07
2019-04-21T11:38:59.193Z,24.03
2019-04-21T11:41:19.132Z,24.17
2019-04-21T11:43:54.927Z,23.96
2019-04-21T11:46:29.093Z,23.89
2019-04-21T11:49:06.331Z,23.71
2019-04-21T11:51:40.786Z,24.13
2019-04-21T11:54:15.064Z,24.06
2019-04-21T11:56:49.079Z,23.78
2019-04-21T11:59:23.734Z,24.22
2019-04-21T12:01:59.423Z,24.75
2019-04-21T12:04:33.732Z,24.30
2019-04-21T12:07:09.175Z,24.89
2019-04-21T12:09:45.772Z,24.07
2019-04-21T12:12:19.377Z,23.57
2019-04-21T12:14:55.610Z,24.23
2019-04-21T12:17:30.036Z,24.50
2019-04-21T12:20:03.657Z,24.68
2019-04-21T12:22:37.484Z,24.93
2019-04-21T12:25:13.512Z,24.82
2019-04-21T12:27:47.864Z,24.98
2019-04-21T12:30:24.078Z,24.66
2019-04-21T12:33:04.348Z,24.64
2019-04-21T12:35:39.488Z,24.14
2019-04-21T12:38:17.461Z,24.38
2019-04-21T12:40:51.001Z,24.26
2019-04-21T12:43:26.578Z,24.43
2019-04-21T12:46:00.385Z,24.32
2019-04-21T12:48:34.011Z,24.57
2019-04-21T12:51:07.925Z,23.90
2019-04-21T12:53:41.738Z,24.19
2019-04-21T12:56:17.738Z,24.06
2019-04-21T12:58:51.576Z,24.53
2019-04-21T13:01:25.259Z,25.22
2019-04-21T13:04:00.225Z,25.00
2019-04-21T13:06:33.942Z,25.01
2019-04-21T13:09:12.713Z,24.90
2019-04-21T13:11:44.647Z,24.69
2019-04-21T13:14:18.307Z,24.65
2019-04-21T13:16:53.247Z,24.58
2019-04-21T13:19:29.278Z,25.06
2019-04-21T13:22:05.743Z,24.60
2019-04-21T13:24:42.117Z,24.61
2019-04-21T13:27:20.536Z,25.47
2019-04-21T13:29:56.532Z,25.70
2019-04-21T13:32:31.176Z,25.78
2019-04-21T13:35:05.402Z,25.29
2019-04-21T13:37:41.514Z,24.82
2019-04-21T13:40:57.007Z,24.34
2019-04-21T13:43:20.951Z,24.45
2019-04-21T13:45:57.732Z,23.98
2019-04-21T13:48:32.659Z,24.59
2019-04-21T13:51:07.140Z,24.80
2019-04-21T13:53:41.867Z,24.97
2019-04-21T13:56:16.402Z,25.30
2019-04-21T13:58:52.629Z,25.37
2019-04-21T14:01:27.649Z,24.66
2019-04-21T14:04:05.186Z,24.33
2019-04-21T14:06:42.155Z,23.60
2019-04-21T14:09:17.868Z,23.89
2019-04-21T14:11:54.090Z,24.21
2019-04-21T14:14:28.375Z,24.28
2019-04-21T14:17:05.116Z,24.61
2019-04-21T14:19:37.767Z,24.90
2019-04-21T14:22:13.922Z,24.27
2019-04-21T14:24:48.050Z,24.00
2019-04-21T14:27:22.199Z,24.21
2019-04-21T14:29:55.834Z,24.08
2019-04-21T14:32:29.948Z,24.08
2019-04-21T14:35:04.857Z,24.41
2019-04-21T14:37:38.657Z,23.86
2019-04-21T14:40:20.125Z,23.99
2019-04-21T14:42:51.989Z,23.58
2019-04-21T14:45:48.634Z,23.58
2019-04-21T14:48:41.577Z,23.78
2019-04-21T14:51:47.468Z,23.89
2019-04-21T14:54:42.630Z,23.80
2019-04-21T14:57:21.241Z,23.43
2019-04-21T14:59:55.197Z,23.52
2019-04-21T15:02:29.866Z,23.06
2019-04-21T15:05:04.089Z,23.21
2019-04-21T15:07:39.300Z,23.37
2019-04-21T15:10:19.063Z,23.66
2019-04-21T15:12:50.118Z,23.64
2019-04-21T15:15:23.787Z,23.39
2019-04-21T15:17:57.939Z,23.00
2019-04-21T15:20:31.568Z,23.24
2019-04-21T15:23:06.295Z,23.18
2019-04-21T15:25:40.068Z,23.15
2019-04-21T15:28:15.902Z,22.88
2019-04-21T15:30:50.443Z,22.92
2019-04-21T15:33:26.465Z,22.89
2019-04-21T15:36:00.822Z,23.18
2019-04-21T15:38:35.801Z,23.20
2019-04-21T15:41:10.875Z,23.39
2019-04-21T15:43:46.737Z,23.46
2019-04-21T15:46:20.589Z,23.35
2019-04-21T15:48:55.150Z,22.95
2019-04-21T15:51:29.650Z,22.81
2019-04-21T15:54:04.901Z,23.11
2019-04-21T15:57:02.772Z,23.11
2019-04-21T16:00:04.667Z,22.88
2019-04-21T16:02:40.545Z,22.58
2019-04-21T16:05:16.910Z,22.62
2019-04-21T16:07:52.013Z,22.53
2019-04-21T16:10:34.625Z,22.76
2019-04-21T16:13:01.706Z,22.52
2019-04-21T16:15:36.558Z,22.39
2019-04-21T16:18:10.432Z,22.23
2019-04-21T16:20:44.032Z,22.06
2019-04-21T16:23:18.281Z,21.97
2019-04-21T16:25:52.755Z,22.02
2019-04-21T16:28:27.020Z,21.94
2019-04-21T16:31:04.677Z,21.84
2019-04-21T16:33:40.958Z,21.94
2019-04-21T16:36:18.096Z,22.04
2019-04-21T16:38:53.463Z,22.06
2019-04-21T16:41:28.544Z,21.81
2019-04-21T16:44:02.995Z,21.73
2019-04-21T16:46:37.746Z,21.64
2019-04-21T16:49:11.810Z,21.76
2019-04-21T16:51:47.543Z,21.62
2019-04-21T16:54:28.244Z,21.58
2019-04-21T16:57:13.798Z,21.53
2019-04-21T16:59:52.664Z,21.57
2019-04-21T17:02:28.392Z,21.36
2019-04-21T17:05:04.652Z,21.26
2019-04-21T17:07:38.882Z,21.32
2019-04-21T17:10:12.888Z,21.29
2019-04-21T17:12:48.009Z,21.15
2019-04-21T17:15:40.758Z,21.23
2019-04-21T17:18:20.827Z,21.22
2019-04-21T17:20:45.048Z,21.21
2019-04-21T17:23:11.488Z,21.18
2019-04-21T17:25:45.386Z,21.07
2019-04-21T17:28:19.612Z,20.98
2019-04-21T17:30:54.621Z,20.73
2019-04-21T17:33:30.202Z,20.68
2019-04-21T17:36:04.990Z,20.70
2019-04-21T17:38:39.880Z,20.55
2019-04-21T17:41:25.003Z,20.53
2019-04-21T17:43:49.938Z,20.47
2019-04-21T17:46:33.303Z,20.44
2019-04-21T17:49:01.017Z,20.29
2019-04-21T17:52:01.783Z,20.15
2019-04-21T17:54:43.608Z,20.07
2019-04-21T17:57:33.459Z,19.96
2019-04-21T18:00:14.076Z,19.89
2019-04-21T18:02:51.763Z,19.83
2019-04-21T18:05:28.991Z,19.80
2019-04-21T18:07:54.378Z,19.70
2019-04-21T18:10:34.795Z,19.60
2019-04-21T18:13:03.729Z,19.55
2019-04-21T18:15:50.695Z,19.37
2019-04-21T18:18:06.458Z,19.23
2019-04-21T18:20:46.250Z,19.15
2019-04-21T18:23:39.461Z,19.03
2019-04-21T18:26:08.170Z,18.92
2019-04-21T18:28:38.784Z,18.83
2019-04-21T18:31:16.532Z,18.65
2019-04-21T18:34:13.810Z,18.60
2019-04-21T18:36:51.710Z,18.50
2019-04-21T18:39:48.612Z,18.47
2019-04-21T18:42:32.783Z,18.22
2019-04-21T18:48:19.068Z,17.90
2019-04-21T18:51:18.953Z,17.75
2019-04-21T18:54:17.373Z,17.60
2019-04-21T18:56:33.748Z,17.41
2019-04-21T18:59:08.871Z,17.26
2019-04-21T19:01:51.447Z,17.16
2019-04-21T19:04:22.528Z,17.03
2019-04-21T19:07:06.701Z,16.88
2019-04-21T19:10:14.868Z,16.72
2019-04-21T19:12:35.150Z,16.58
2019-04-21T19:14:59.329Z,16.47
2019-04-21T19:22:47.194Z,16.40
2019-04-21T19:25:25.279Z,16.38
2019-04-21T19:28:04.625Z,16.34
2019-04-21T19:30:49.341Z,16.28
2019-04-21T19:33:22.062Z,16.34
2019-04-21T19:35:39.342Z,16.22
2019-04-21T19:38:16.195Z,16.07
2019-04-21T19:41:05.332Z,15.91
2019-04-21T19:43:49.275Z,15.75
2019-04-21T19:46:19.335Z,15.58
2019-04-21T19:49:05.495Z,15.50
2019-04-21T19:51:26.416Z,15.34
2019-04-21T19:54:00.794Z,15.32
2019-04-21T19:56:25.854Z,15.18
2019-04-21T19:59:01.171Z,15.03
2019-04-21T20:01:35.194Z,14.89
2019-04-21T20:04:10.424Z,14.76
2019-04-21T20:07:00.666Z,14.68
2019-04-21T20:09:39.606Z,14.95
2019-04-21T20:12:09.339Z,15.29
2019-04-21T20:14:55.750Z,15.22
2019-04-21T20:17:24.411Z,15.10
2019-04-21T20:19:45.024Z,15.05
2019-04-21T20:22:18.943Z,15.18
2019-04-21T20:25:00.181Z,14.98
2019-04-21T20:27:39.036Z,14.67
2019-04-21T20:30:29.770Z,14.70
2019-04-21T20:33:05.821Z,14.54
2019-04-21T20:35:45.096Z,14.36
2019-04-21T20:38:12.529Z,14.20
2019-04-21T20:40:45.347Z,14.23
2019-04-21T20:43:30.704Z,14.13
2019-04-21T20:46:06.143Z,14.22
2019-04-21T20:48:40.109Z,14.27
2019-04-21T20:51:18.570Z,14.49
2019-04-21T20:53:47.803Z,14.50
2019-04-21T20:56:19.324Z,14.65
2019-04-21T20:58:59.791Z,14.54
2019-04-21T21:01:39.402Z,14.58
2019-04-21T21:04:13.796Z,14.66
2019-04-21T21:06:54.114Z,14.86
2019-04-21T21:09:23.089Z,14.86
2019-04-21T21:12:18.254Z,14.83
2019-04-21T21:14:40.760Z,14.90
2019-04-21T21:17:36.112Z,14.89
2019-04-21T21:19:55.797Z,14.96
2019-04-21T21:22:22.789Z,14.96
2019-04-21T21:25:02.990Z,14.88
2019-04-21T21:27:38.351Z,14.81
2019-04-21T21:30:08.320Z,14.89
2019-04-21T21:32:52.428Z,14.80
2019-04-21T21:35:21.878Z,14.86
2019-04-21T21:38:06.728Z,14.79
2019-04-21T21:40:38.188Z,14.70
2019-04-21T21:43:01.555Z,14.71
2019-04-21T21:45:41.507Z,14.64
2019-04-21T21:48:26.434Z,14.48
2019-04-21T21:50:56.639Z,14.54
2019-04-21T21:53:26.998Z,14.44
2019-04-21T21:56:00.727Z,14.40
2019-04-21T21:58:41.917Z,14.35
2019-04-21T22:01:16.703Z,14.35
2019-04-21T22:03:59.199Z,14.33
2019-04-21T22:06:38.691Z,14.29
2019-04-21T22:09:01.702Z,14.36
2019-04-21T22:11:35.887Z,14.28
2019-04-21T22:14:17.146Z,14.29
2019-04-21T22:17:07.682Z,14.21
2019-04-21T22:19:41.629Z,14.06
2019-04-21T22:22:21.051Z,13.95
2019-04-21T22:24:49.316Z,13.93
2019-04-21T22:27:14.902Z,13.92
2019-04-21T22:29:53.513Z,13.90
2019-04-21T22:32:28.633Z,13.83
2019-04-21T22:35:04.810Z,13.83
2019-04-21T22:37:48.772Z,13.65
2019-04-21T22:40:23.997Z,13.66
2019-04-21T22:42:59.458Z,13.50
2019-04-21T22:45:25.141Z,13.56
2019-04-21T22:48:07.501Z,13.46
2019-04-21T22:50:38.375Z,13.31
2019-04-21T22:53:13.815Z,13.21
2019-04-21T22:55:49.602Z,12.98
2019-04-21T22:58:29.339Z,12.97
2019-04-21T23:01:01.856Z,12.88
2019-04-21T23:03:35.767Z,12.81
2019-04-21T23:06:17.917Z,12.73
2019-04-21T23:08:48.114Z,12.87
2019-04-21T23:11:23.540Z,12.80
2019-04-21T23:14:04.008Z,12.79
2019-04-21T23:16:38.443Z,12.88
2019-04-21T23:19:31.164Z,12.80
2019-04-21T23:22:04.151Z,12.75
2019-04-21T23:24:45.545Z,12.78
2019-04-21T23:27:15.573Z,12.82
2019-04-21T23:29:58.867Z,12.77
2019-04-21T23:32:23.899Z,12.69
2019-04-21T23:34:49.161Z,12.50
2019-04-21T23:37:27.178Z,12.28
2019-04-21T23:40:07.573Z,12.07
2019-04-21T23:42:41.559Z,12.02
2019-04-21T23:45:17.691Z,11.78
2019-04-21T23:48:05.004Z,11.75
2019-04-21T23:50:37.838Z,11.73
2019-04-21T23:53:01.800Z,11.75
2019-04-21T23:55:37.088Z,11.79
2019-04-21T23:58:16.385Z,11.64
